sensor_id;sensor_type;location;lat;lon;timestamp;temperature;humidity
79026;DHT22;68425;44.716;37.756;2023-04-01T00:00:08;25.69;33.18
79026;DHT22;68425;44.716;37.756;2023-04-01T00:01:14;25.69;33.19
79026;DHT22;68425;44.716;37.756;2023-04-01T00:02:16;25.68;33.20
79026;DHT22;68425;44.716;37.756;2023-04-01T00:03:17;25.69;33.19
79026;DHT22;68425;44.716;37.756;2023-04-01T00:04:19;25.71;33.15
79026;DHT22;68425;44.716;37.756;2023-04-01T00:05:22;25.69;33.12
79026;DHT22;68425;44.716;37.756;2023-04-01T00:06:26;25.71;33.18
79026;DHT22;68425;44.716;37.756;2023-04-01T00:07:28;25.76;33.08
79026;DHT22;68425;44.716;37.756;2023-04-01T00:08:29;25.77;33.02
79026;DHT22;68425;44.716;37.756;2023-04-01T00:09:31;25.76;33.00
79026;DHT22;68425;44.716;37.756;2023-04-01T00:10:32;25.75;33.02
79026;DHT22;68425;44.716;37.756;2023-04-01T00:11:34;25.72;33.12
79026;DHT22;68425;44.716;37.756;2023-04-01T00:12:35;25.69;33.18
79026;DHT22;68425;44.716;37.756;2023-04-01T00:13:37;25.66;33.24
79026;DHT22;68425;44.716;37.756;2023-04-01T00:14:38;25.66;33.22
79026;DHT22;68425;44.716;37.756;2023-04-01T00:15:41;25.68;33.22
79026;DHT22;68425;44.716;37.756;2023-04-01T00:16:42;25.67;33.25
79026;DHT22;68425;44.716;37.756;2023-04-01T00:17:44;25.66;33.22
79026;DHT22;68425;44.716;37.756;2023-04-01T00:18:46;25.65;33.28
79026;DHT22;68425;44.716;37.756;2023-04-01T00:19:48;25.63;33.25
79026;DHT22;68425;44.716;37.756;2023-04-01T00:20:51;25.64;33.22
79026;DHT22;68425;44.716;37.756;2023-04-01T00:21:52;25.64;33.26
79026;DHT22;68425;44.716;37.756;2023-04-01T00:22:54;25.63;33.27
79026;DHT22;68425;44.716;37.756;2023-04-01T00:23:56;25.63;33.28
79026;DHT22;68425;44.716;37.756;2023-04-01T00:24:57;25.65;33.25
79026;DHT22;68425;44.716;37.756;2023-04-01T00:26:02;25.64;33.24
79026;DHT22;68425;44.716;37.756;2023-04-01T00:27:03;25.66;33.21
79026;DHT22;68425;44.716;37.756;2023-04-01T00:28:05;25.64;33.22
79026;DHT22;68425;44.716;37.756;2023-04-01T00:29:06;25.65;33.22
79026;DHT22;68425;44.716;37.756;2023-04-01T00:30:08;25.65;33.23
79026;DHT22;68425;44.716;37.756;2023-04-01T00:31:10;25.65;33.25
79026;DHT22;68425;44.716;37.756;2023-04-01T00:32:12;25.66;33.21
79026;DHT22;68425;44.716;37.756;2023-04-01T00:33:14;25.66;33.21
79026;DHT22;68425;44.716;37.756;2023-04-01T00:34:16;25.63;33.26
79026;DHT22;68425;44.716;37.756;2023-04-01T00:35:17;25.65;33.24
79026;DHT22;68425;44.716;37.756;2023-04-01T00:36:21;25.63;33.21
79026;DHT22;68425;44.716;37.756;2023-04-01T00:37:26;25.64;33.25
79026;DHT22;68425;44.716;37.756;2023-04-01T00:38:28;25.64;33.30
79026;DHT22;68425;44.716;37.756;2023-04-01T00:39:30;25.64;33.25
79026;DHT22;68425;44.716;37.756;2023-04-01T00:40:35;25.63;33.28
79026;DHT22;68425;44.716;37.756;2023-04-01T00:41:36;25.64;33.22
79026;DHT22;68425;44.716;37.756;2023-04-01T00:42:38;25.64;33.21
79026;DHT22;68425;44.716;37.756;2023-04-01T00:43:41;25.64;33.20
79026;DHT22;68425;44.716;37.756;2023-04-01T00:44:44;25.64;33.18
79026;DHT22;68425;44.716;37.756;2023-04-01T00:45:47;25.68;33.09
79026;DHT22;68425;44.716;37.756;2023-04-01T00:46:49;25.72;32.99
79026;DHT22;68425;44.716;37.756;2023-04-01T00:47:50;25.71;33.05
79026;DHT22;68425;44.716;37.756;2023-04-01T00:48:54;25.71;33.04
79026;DHT22;68425;44.716;37.756;2023-04-01T00:49:56;25.69;33.02
79026;DHT22;68425;44.716;37.756;2023-04-01T00:51:13;25.66;33.11
79026;DHT22;68425;44.716;37.756;2023-04-01T00:52:19;25.66;33.08
79026;DHT22;68425;44.716;37.756;2023-04-01T00:53:23;25.66;33.09
79026;DHT22;68425;44.716;37.756;2023-04-01T00:54:27;25.66;33.08
79026;DHT22;68425;44.716;37.756;2023-04-01T00:55:33;25.67;33.10
79026;DHT22;68425;44.716;37.756;2023-04-01T00:56:38;25.67;33.05
79026;DHT22;68425;44.716;37.756;2023-04-01T00:57:42;25.68;33.05
79026;DHT22;68425;44.716;37.756;2023-04-01T00:58:50;25.67;33.06
79026;DHT22;68425;44.716;37.756;2023-04-01T00:59:54;25.67;33.10
79026;DHT22;68425;44.716;37.756;2023-04-01T01:00:57;25.66;33.12
79026;DHT22;68425;44.716;37.756;2023-04-01T01:02:05;25.64;33.06
79026;DHT22;68425;44.716;37.756;2023-04-01T01:03:08;25.66;33.08
79026;DHT22;68425;44.716;37.756;2023-04-01T01:04:38;25.63;33.20
79026;DHT22;68425;44.716;37.756;2023-04-01T01:09:06;25.66;33.11
79026;DHT22;68425;44.716;37.756;2023-04-01T01:10:19;25.66;33.06
79026;DHT22;68425;44.716;37.756;2023-04-01T01:11:42;25.64;33.09
79026;DHT22;68425;44.716;37.756;2023-04-01T01:12:45;25.66;33.09
79026;DHT22;68425;44.716;37.756;2023-04-01T01:14:06;25.63;33.14
79026;DHT22;68425;44.716;37.756;2023-04-01T01:15:32;25.63;33.14
79026;DHT22;68425;44.716;37.756;2023-04-01T01:16:43;25.63;33.08
79026;DHT22;68425;44.716;37.756;2023-04-01T01:20:31;25.64;33.07
79026;DHT22;68425;44.716;37.756;2023-04-01T01:26:38;25.54;33.26
79026;DHT22;68425;44.716;37.756;2023-04-01T01:27:52;25.53;33.30
79026;DHT22;68425;44.716;37.756;2023-04-01T01:29:05;25.53;33.28
79026;DHT22;68425;44.716;37.756;2023-04-01T01:31:33;25.51;33.34
79026;DHT22;68425;44.716;37.756;2023-04-01T01:33:02;25.51;33.37
79026;DHT22;68425;44.716;37.756;2023-04-01T01:34:30;25.52;33.31
79026;DHT22;68425;44.716;37.756;2023-04-01T01:35:38;25.54;33.25
79026;DHT22;68425;44.716;37.756;2023-04-01T01:36:53;25.53;33.23
79026;DHT22;68425;44.716;37.756;2023-04-01T01:38:01;25.53;33.38
79026;DHT22;68425;44.716;37.756;2023-04-01T01:39:05;25.50;33.38
79026;DHT22;68425;44.716;37.756;2023-04-01T01:40:10;25.49;33.38
79026;DHT22;68425;44.716;37.756;2023-04-01T01:41:15;25.48;33.38
79026;DHT22;68425;44.716;37.756;2023-04-01T01:42:19;25.47;33.41
79026;DHT22;68425;44.716;37.756;2023-04-01T01:43:29;25.47;33.39
79026;DHT22;68425;44.716;37.756;2023-04-01T01:44:31;25.48;33.36
79026;DHT22;68425;44.716;37.756;2023-04-01T01:45:36;25.47;33.40
79026;DHT22;68425;44.716;37.756;2023-04-01T01:46:39;25.47;33.37
79026;DHT22;68425;44.716;37.756;2023-04-01T01:47:42;25.48;33.33
79026;DHT22;68425;44.716;37.756;2023-04-01T01:48:45;25.48;33.31
79026;DHT22;68425;44.716;37.756;2023-04-01T01:49:48;25.51;33.28
79026;DHT22;68425;44.716;37.756;2023-04-01T01:50:51;25.56;33.17
79026;DHT22;68425;44.716;37.756;2023-04-01T01:51:53;25.57;33.13
79026;DHT22;68425;44.716;37.756;2023-04-01T01:53:07;25.56;33.18
79026;DHT22;68425;44.716;37.756;2023-04-01T01:54:13;25.54;33.22
79026;DHT22;68425;44.716;37.756;2023-04-01T01:55:36;25.53;33.22
79026;DHT22;68425;44.716;37.756;2023-04-01T01:56:38;25.53;33.22
79026;DHT22;68425;44.716;37.756;2023-04-01T01:57:41;25.52;33.23
79026;DHT22;68425;44.716;37.756;2023-04-01T01:58:51;25.51;33.37
79026;DHT22;68425;44.716;37.756;2023-04-01T02:00:02;25.52;33.30
79026;DHT22;68425;44.716;37.756;2023-04-01T02:01:17;25.54;33.27
79026;DHT22;68425;44.716;37.756;2023-04-01T02:02:22;25.53;33.25
79026;DHT22;68425;44.716;37.756;2023-04-01T02:03:24;25.54;33.22
79026;DHT22;68425;44.716;37.756;2023-04-01T02:04:27;25.58;33.12
79026;DHT22;68425;44.716;37.756;2023-04-01T02:05:29;25.59;33.12
79026;DHT22;68425;44.716;37.756;2023-04-01T02:06:41;25.57;33.12
79026;DHT22;68425;44.716;37.756;2023-04-01T02:08:17;25.57;33.15
79026;DHT22;68425;44.716;37.756;2023-04-01T02:09:18;25.60;33.07
79026;DHT22;68425;44.716;37.756;2023-04-01T02:10:22;25.58;33.10
79026;DHT22;68425;44.716;37.756;2023-04-01T02:12:13;25.56;33.22
79026;DHT22;68425;44.716;37.756;2023-04-01T02:13:24;25.57;33.22
79026;DHT22;68425;44.716;37.756;2023-04-01T02:14:36;25.56;33.20
79026;DHT22;68425;44.716;37.756;2023-04-01T02:15:44;25.53;33.22
79026;DHT22;68425;44.716;37.756;2023-04-01T02:17:02;25.51;33.22
79026;DHT22;68425;44.716;37.756;2023-04-01T02:18:05;25.52;33.26
79026;DHT22;68425;44.716;37.756;2023-04-01T02:19:09;25.50;33.26
79026;DHT22;68425;44.716;37.756;2023-04-01T02:20:13;25.52;33.23
79026;DHT22;68425;44.716;37.756;2023-04-01T02:21:17;25.56;33.15
79026;DHT22;68425;44.716;37.756;2023-04-01T02:22:41;25.52;33.21
79026;DHT22;68425;44.716;37.756;2023-04-01T02:23:45;25.54;33.15
79026;DHT22;68425;44.716;37.756;2023-04-01T02:24:50;25.54;33.16
79026;DHT22;68425;44.716;37.756;2023-04-01T02:25:53;25.53;33.17
79026;DHT22;68425;44.716;37.756;2023-04-01T02:26:57;25.51;33.22
79026;DHT22;68425;44.716;37.756;2023-04-01T02:27:59;25.49;33.27
79026;DHT22;68425;44.716;37.756;2023-04-01T02:29:01;25.49;33.30
79026;DHT22;68425;44.716;37.756;2023-04-01T02:30:05;25.49;33.32
79026;DHT22;68425;44.716;37.756;2023-04-01T02:31:10;25.51;33.28
79026;DHT22;68425;44.716;37.756;2023-04-01T02:32:13;25.50;33.30
79026;DHT22;68425;44.716;37.756;2023-04-01T02:33:16;25.50;33.29
79026;DHT22;68425;44.716;37.756;2023-04-01T02:34:19;25.49;33.26
79026;DHT22;68425;44.716;37.756;2023-04-01T02:35:21;25.52;33.25
79026;DHT22;68425;44.716;37.756;2023-04-01T02:36:22;25.52;33.19
79026;DHT22;68425;44.716;37.756;2023-04-01T02:37:24;25.52;33.19
79026;DHT22;68425;44.716;37.756;2023-04-01T02:38:26;25.52;33.22
79026;DHT22;68425;44.716;37.756;2023-04-01T02:39:27;25.52;33.22
79026;DHT22;68425;44.716;37.756;2023-04-01T02:40:29;25.49;33.25
79026;DHT22;68425;44.716;37.756;2023-04-01T02:41:30;25.51;33.23
79026;DHT22;68425;44.716;37.756;2023-04-01T02:42:32;25.51;33.22
79026;DHT22;68425;44.716;37.756;2023-04-01T02:43:34;25.51;33.22
79026;DHT22;68425;44.716;37.756;2023-04-01T02:44:36;25.51;33.25
79026;DHT22;68425;44.716;37.756;2023-04-01T02:45:38;25.50;33.22
79026;DHT22;68425;44.716;37.756;2023-04-01T02:46:39;25.52;33.21
79026;DHT22;68425;44.716;37.756;2023-04-01T02:47:41;25.51;33.17
79026;DHT22;68425;44.716;37.756;2023-04-01T02:48:42;25.53;33.24
79026;DHT22;68425;44.716;37.756;2023-04-01T02:49:44;25.54;33.23
79026;DHT22;68425;44.716;37.756;2023-04-01T02:50:46;25.53;33.22
79026;DHT22;68425;44.716;37.756;2023-04-01T02:51:47;25.54;33.20
79026;DHT22;68425;44.716;37.756;2023-04-01T02:52:48;25.56;33.07
79026;DHT22;68425;44.716;37.756;2023-04-01T02:53:50;25.53;33.01
79026;DHT22;68425;44.716;37.756;2023-04-01T02:54:52;25.53;32.95
79026;DHT22;68425;44.716;37.756;2023-04-01T02:55:53;25.53;32.84
79026;DHT22;68425;44.716;37.756;2023-04-01T02:56:55;25.52;32.86
79026;DHT22;68425;44.716;37.756;2023-04-01T02:57:56;25.52;32.82
79026;DHT22;68425;44.716;37.756;2023-04-01T02:58:57;25.53;32.86
79026;DHT22;68425;44.716;37.756;2023-04-01T02:59:59;25.52;32.79
79026;DHT22;68425;44.716;37.756;2023-04-01T03:01:00;25.52;32.79
79026;DHT22;68425;44.716;37.756;2023-04-01T03:02:01;25.51;32.77
79026;DHT22;68425;44.716;37.756;2023-04-01T03:03:03;25.51;32.77
79026;DHT22;68425;44.716;37.756;2023-04-01T03:04:05;25.52;32.72
79026;DHT22;68425;44.716;37.756;2023-04-01T03:05:06;25.52;32.74
79026;DHT22;68425;44.716;37.756;2023-04-01T03:06:10;25.53;32.64
79026;DHT22;68425;44.716;37.756;2023-04-01T03:07:12;25.54;32.62
79026;DHT22;68425;44.716;37.756;2023-04-01T03:08:13;25.56;32.63
79026;DHT22;68425;44.716;37.756;2023-04-01T03:09:15;25.53;32.63
79026;DHT22;68425;44.716;37.756;2023-04-01T03:10:17;25.53;32.64
79026;DHT22;68425;44.716;37.756;2023-04-01T03:11:18;25.53;32.66
79026;DHT22;68425;44.716;37.756;2023-04-01T03:12:19;25.52;32.67
79026;DHT22;68425;44.716;37.756;2023-04-01T03:13:25;25.53;32.63
79026;DHT22;68425;44.716;37.756;2023-04-01T03:14:26;25.53;32.61
79026;DHT22;68425;44.716;37.756;2023-04-01T03:15:28;25.54;32.64
79026;DHT22;68425;44.716;37.756;2023-04-01T03:16:35;25.50;32.64
79026;DHT22;68425;44.716;37.756;2023-04-01T03:17:38;25.52;32.57
79026;DHT22;68425;44.716;37.756;2023-04-01T03:18:39;25.51;32.64
79026;DHT22;68425;44.716;37.756;2023-04-01T03:19:41;25.50;32.64
79026;DHT22;68425;44.716;37.756;2023-04-01T03:20:44;25.50;32.62
79026;DHT22;68425;44.716;37.756;2023-04-01T03:21:45;25.50;32.65
79026;DHT22;68425;44.716;37.756;2023-04-01T03:22:47;25.48;32.70
79026;DHT22;68425;44.716;37.756;2023-04-01T03:23:48;25.49;32.64
79026;DHT22;68425;44.716;37.756;2023-04-01T03:24:54;25.49;32.62
79026;DHT22;68425;44.716;37.756;2023-04-01T03:25:55;25.50;32.58
79026;DHT22;68425;44.716;37.756;2023-04-01T03:26:57;25.49;32.61
79026;DHT22;68425;44.716;37.756;2023-04-01T03:28:01;25.47;32.67
79026;DHT22;68425;44.716;37.756;2023-04-01T03:29:03;25.47;32.65
79026;DHT22;68425;44.716;37.756;2023-04-01T03:30:05;25.49;32.59
79026;DHT22;68425;44.716;37.756;2023-04-01T03:31:13;25.49;32.61
79026;DHT22;68425;44.716;37.756;2023-04-01T03:32:23;25.52;32.59
79026;DHT22;68425;44.716;37.756;2023-04-01T03:33:28;25.50;32.57
79026;DHT22;68425;44.716;37.756;2023-04-01T03:34:30;25.50;32.70
79026;DHT22;68425;44.716;37.756;2023-04-01T03:35:32;25.48;32.76
79026;DHT22;68425;44.716;37.756;2023-04-01T03:36:34;25.46;33.05
79026;DHT22;68425;44.716;37.756;2023-04-01T03:37:36;25.46;33.05
79026;DHT22;68425;44.716;37.756;2023-04-01T03:38:39;25.45;33.07
79026;DHT22;68425;44.716;37.756;2023-04-01T03:39:41;25.45;33.13
79026;DHT22;68425;44.716;37.756;2023-04-01T03:40:43;25.44;33.12
79026;DHT22;68425;44.716;37.756;2023-04-01T03:41:47;25.44;33.48
79026;DHT22;68425;44.716;37.756;2023-04-01T03:42:49;25.40;33.92
79026;DHT22;68425;44.716;37.756;2023-04-01T03:43:50;25.40;33.50
79026;DHT22;68425;44.716;37.756;2023-04-01T03:44:52;25.42;33.54
79026;DHT22;68425;44.716;37.756;2023-04-01T03:45:54;25.44;33.53
79026;DHT22;68425;44.716;37.756;2023-04-01T03:46:57;25.47;33.21
79026;DHT22;68425;44.716;37.756;2023-04-01T03:48:02;25.48;33.03
79026;DHT22;68425;44.716;37.756;2023-04-01T03:49:08;25.50;32.93
79026;DHT22;68425;44.716;37.756;2023-04-01T03:50:12;25.50;32.86
79026;DHT22;68425;44.716;37.756;2023-04-01T03:51:14;25.50;32.91
79026;DHT22;68425;44.716;37.756;2023-04-01T03:52:15;25.49;32.90
79026;DHT22;68425;44.716;37.756;2023-04-01T03:53:18;25.47;32.93
79026;DHT22;68425;44.716;37.756;2023-04-01T03:54:21;25.47;32.94
79026;DHT22;68425;44.716;37.756;2023-04-01T03:55:23;25.47;32.81
79026;DHT22;68425;44.716;37.756;2023-04-01T03:56:25;25.47;32.75
79026;DHT22;68425;44.716;37.756;2023-04-01T03:57:27;25.48;32.73
79026;DHT22;68425;44.716;37.756;2023-04-01T03:58:32;25.47;32.76
79026;DHT22;68425;44.716;37.756;2023-04-01T03:59:36;25.47;32.83
79026;DHT22;68425;44.716;37.756;2023-04-01T04:00:42;25.48;32.80
79026;DHT22;68425;44.716;37.756;2023-04-01T04:01:46;25.47;32.77
79026;DHT22;68425;44.716;37.756;2023-04-01T04:02:49;25.47;32.80
79026;DHT22;68425;44.716;37.756;2023-04-01T04:03:55;25.45;32.80
79026;DHT22;68425;44.716;37.756;2023-04-01T04:04:57;25.45;32.79
79026;DHT22;68425;44.716;37.756;2023-04-01T04:05:59;25.45;32.76
79026;DHT22;68425;44.716;37.756;2023-04-01T04:07:00;25.47;32.73
79026;DHT22;68425;44.716;37.756;2023-04-01T04:08:05;25.46;32.68
79026;DHT22;68425;44.716;37.756;2023-04-01T04:09:07;25.45;32.76
79026;DHT22;68425;44.716;37.756;2023-04-01T04:10:09;25.46;32.65
79026;DHT22;68425;44.716;37.756;2023-04-01T04:11:11;25.45;32.73
79026;DHT22;68425;44.716;37.756;2023-04-01T04:12:19;25.43;32.75
79026;DHT22;68425;44.716;37.756;2023-04-01T04:13:21;25.44;33.01
79026;DHT22;68425;44.716;37.756;2023-04-01T04:14:29;25.44;32.93
79026;DHT22;68425;44.716;37.756;2023-04-01T04:15:31;25.44;32.83
79026;DHT22;68425;44.716;37.756;2023-04-01T04:16:35;25.43;32.77
79026;DHT22;68425;44.716;37.756;2023-04-01T04:17:37;25.44;32.76
79026;DHT22;68425;44.716;37.756;2023-04-01T04:18:39;25.42;32.82
79026;DHT22;68425;44.716;37.756;2023-04-01T04:19:40;25.40;32.91
79026;DHT22;68425;44.716;37.756;2023-04-01T04:20:46;25.42;32.86
79026;DHT22;68425;44.716;37.756;2023-04-01T04:21:52;25.40;32.89
79026;DHT22;68425;44.716;37.756;2023-04-01T04:22:54;25.43;32.87
79026;DHT22;68425;44.716;37.756;2023-04-01T04:23:56;25.43;32.92
79026;DHT22;68425;44.716;37.756;2023-04-01T04:24:57;25.40;32.86
79026;DHT22;68425;44.716;37.756;2023-04-01T04:26:01;25.42;32.91
79026;DHT22;68425;44.716;37.756;2023-04-01T04:27:05;25.43;32.89
79026;DHT22;68425;44.716;37.756;2023-04-01T04:28:07;25.43;32.88
79026;DHT22;68425;44.716;37.756;2023-04-01T04:29:09;25.45;32.90
79026;DHT22;68425;44.716;37.756;2023-04-01T04:30:11;25.44;32.92
79026;DHT22;68425;44.716;37.756;2023-04-01T04:31:18;25.43;32.90
79026;DHT22;68425;44.716;37.756;2023-04-01T04:32:21;25.43;32.93
79026;DHT22;68425;44.716;37.756;2023-04-01T04:33:22;25.44;32.98
79026;DHT22;68425;44.716;37.756;2023-04-01T04:34:24;25.45;32.86
79026;DHT22;68425;44.716;37.756;2023-04-01T04:35:26;25.44;32.95
79026;DHT22;68425;44.716;37.756;2023-04-01T04:36:27;25.44;32.93
79026;DHT22;68425;44.716;37.756;2023-04-01T04:37:29;25.43;33.00
79026;DHT22;68425;44.716;37.756;2023-04-01T04:38:30;25.42;33.06
79026;DHT22;68425;44.716;37.756;2023-04-01T04:39:32;25.43;33.05
79026;DHT22;68425;44.716;37.756;2023-04-01T04:40:36;25.43;32.99
79026;DHT22;68425;44.716;37.756;2023-04-01T04:41:38;25.46;33.15
79026;DHT22;68425;44.716;37.756;2023-04-01T04:42:39;25.46;32.97
79026;DHT22;68425;44.716;37.756;2023-04-01T04:43:53;25.46;33.00
79026;DHT22;68425;44.716;37.756;2023-04-01T04:44:56;25.47;32.93
79026;DHT22;68425;44.716;37.756;2023-04-01T04:45:57;25.47;33.11
79026;DHT22;68425;44.716;37.756;2023-04-01T04:46:58;25.45;33.05
79026;DHT22;68425;44.716;37.756;2023-04-01T04:48:00;25.46;33.00
79026;DHT22;68425;44.716;37.756;2023-04-01T04:49:03;25.45;33.22
79026;DHT22;68425;44.716;37.756;2023-04-01T04:50:04;25.46;33.02
79026;DHT22;68425;44.716;37.756;2023-04-01T04:51:07;25.47;33.05
79026;DHT22;68425;44.716;37.756;2023-04-01T04:52:08;25.45;33.03
79026;DHT22;68425;44.716;37.756;2023-04-01T04:53:11;25.46;33.01
79026;DHT22;68425;44.716;37.756;2023-04-01T04:54:12;25.47;33.04
79026;DHT22;68425;44.716;37.756;2023-04-01T04:55:34;25.50;33.02
79026;DHT22;68425;44.716;37.756;2023-04-01T04:56:55;25.50;32.89
79026;DHT22;68425;44.716;37.756;2023-04-01T04:57:58;25.50;32.94
79026;DHT22;68425;44.716;37.756;2023-04-01T04:59:00;25.50;32.89
79026;DHT22;68425;44.716;37.756;2023-04-01T05:00:14;25.53;33.01
79026;DHT22;68425;44.716;37.756;2023-04-01T05:01:28;25.56;32.91
79026;DHT22;68425;44.716;37.756;2023-04-01T05:02:29;25.56;32.91
79026;DHT22;68425;44.716;37.756;2023-04-01T05:03:30;25.54;32.97
79026;DHT22;68425;44.716;37.756;2023-04-01T05:04:36;25.51;32.96
79026;DHT22;68425;44.716;37.756;2023-04-01T05:05:39;25.54;33.05
79026;DHT22;68425;44.716;37.756;2023-04-01T05:06:42;25.53;33.20
79026;DHT22;68425;44.716;37.756;2023-04-01T05:07:44;25.51;33.15
79026;DHT22;68425;44.716;37.756;2023-04-01T05:08:46;25.52;33.09
79026;DHT22;68425;44.716;37.756;2023-04-01T05:09:48;25.53;33.06
79026;DHT22;68425;44.716;37.756;2023-04-01T05:10:49;25.52;33.02
79026;DHT22;68425;44.716;37.756;2023-04-01T05:11:51;25.52;33.01
79026;DHT22;68425;44.716;37.756;2023-04-01T05:12:53;25.56;33.02
79026;DHT22;68425;44.716;37.756;2023-04-01T05:13:57;25.53;32.89
79026;DHT22;68425;44.716;37.756;2023-04-01T05:14:58;25.54;32.82
79026;DHT22;68425;44.716;37.756;2023-04-01T05:16:00;25.56;32.80
79026;DHT22;68425;44.716;37.756;2023-04-01T05:17:08;25.56;33.02
79026;DHT22;68425;44.716;37.756;2023-04-01T05:18:10;25.54;33.21
79026;DHT22;68425;44.716;37.756;2023-04-01T05:19:12;25.54;33.05
79026;DHT22;68425;44.716;37.756;2023-04-01T05:20:22;25.53;33.17
79026;DHT22;68425;44.716;37.756;2023-04-01T05:21:28;25.54;33.28
79026;DHT22;68425;44.716;37.756;2023-04-01T05:22:34;25.52;33.17
79026;DHT22;68425;44.716;37.756;2023-04-01T05:23:38;25.53;33.13
79026;DHT22;68425;44.716;37.756;2023-04-01T05:24:40;25.54;33.02
79026;DHT22;68425;44.716;37.756;2023-04-01T05:25:41;25.54;33.25
79026;DHT22;68425;44.716;37.756;2023-04-01T05:26:43;25.52;33.22
79026;DHT22;68425;44.716;37.756;2023-04-01T05:27:45;25.52;33.55
79026;DHT22;68425;44.716;37.756;2023-04-01T05:28:46;25.50;33.65
79026;DHT22;68425;44.716;37.756;2023-04-01T05:29:48;25.50;33.45
79026;DHT22;68425;44.716;37.756;2023-04-01T05:31:15;25.51;33.17
79026;DHT22;68425;44.716;37.756;2023-04-01T05:32:19;25.52;33.09
79026;DHT22;68425;44.716;37.756;2023-04-01T05:33:21;25.54;33.27
79026;DHT22;68425;44.716;37.756;2023-04-01T05:34:22;25.54;32.99
79026;DHT22;68425;44.716;37.756;2023-04-01T05:35:25;25.54;33.05
79026;DHT22;68425;44.716;37.756;2023-04-01T05:36:27;25.56;32.98
79026;DHT22;68425;44.716;37.756;2023-04-01T05:37:29;25.54;32.99
79026;DHT22;68425;44.716;37.756;2023-04-01T05:38:31;25.56;33.01
79026;DHT22;68425;44.716;37.756;2023-04-01T05:39:39;25.54;32.99
79026;DHT22;68425;44.716;37.756;2023-04-01T05:40:41;25.57;33.09
79026;DHT22;68425;44.716;37.756;2023-04-01T05:41:42;25.58;32.88
79026;DHT22;68425;44.716;37.756;2023-04-01T05:42:43;25.58;32.90
79026;DHT22;68425;44.716;37.756;2023-04-01T05:43:46;25.60;32.76
79026;DHT22;68425;44.716;37.756;2023-04-01T05:45:08;25.60;32.75
79026;DHT22;68425;44.716;37.756;2023-04-01T05:46:35;25.61;32.66
79026;DHT22;68425;44.716;37.756;2023-04-01T05:47:48;25.62;32.70
79026;DHT22;68425;44.716;37.756;2023-04-01T05:48:50;25.59;32.93
79026;DHT22;68425;44.716;37.756;2023-04-01T05:49:52;25.57;33.27
79026;DHT22;68425;44.716;37.756;2023-04-01T05:50:53;25.50;33.67
79026;DHT22;68425;44.716;37.756;2023-04-01T05:51:56;25.50;33.66
79026;DHT22;68425;44.716;37.756;2023-04-01T05:52:58;25.50;33.60
79026;DHT22;68425;44.716;37.756;2023-04-01T05:53:59;25.49;33.51
79026;DHT22;68425;44.716;37.756;2023-04-01T05:55:02;25.50;33.71
79026;DHT22;68425;44.716;37.756;2023-04-01T05:56:04;25.49;33.51
79026;DHT22;68425;44.716;37.756;2023-04-01T05:57:11;25.50;34.12
79026;DHT22;68425;44.716;37.756;2023-04-01T05:58:13;25.49;34.05
79026;DHT22;68425;44.716;37.756;2023-04-01T05:59:18;25.50;34.14
79026;DHT22;68425;44.716;37.756;2023-04-01T06:00:21;25.53;33.92
79026;DHT22;68425;44.716;37.756;2023-04-01T06:01:23;25.53;34.13
79026;DHT22;68425;44.716;37.756;2023-04-01T06:02:25;25.53;34.32
79026;DHT22;68425;44.716;37.756;2023-04-01T06:03:26;25.53;33.94
79026;DHT22;68425;44.716;37.756;2023-04-01T06:04:34;25.53;33.49
79026;DHT22;68425;44.716;37.756;2023-04-01T06:05:40;25.58;33.64
79026;DHT22;68425;44.716;37.756;2023-04-01T06:06:43;25.60;33.87
79026;DHT22;68425;44.716;37.756;2023-04-01T06:07:47;25.61;33.63
79026;DHT22;68425;44.716;37.756;2023-04-01T06:08:49;25.63;33.56
79026;DHT22;68425;44.716;37.756;2023-04-01T06:09:51;25.65;33.34
79026;DHT22;68425;44.716;37.756;2023-04-01T06:11:01;25.66;33.51
79026;DHT22;68425;44.716;37.756;2023-04-01T06:16:15;25.72;33.39
79026;DHT22;68425;44.716;37.756;2023-04-01T06:17:26;25.74;33.21
79026;DHT22;68425;44.716;37.756;2023-04-01T06:25:29;25.74;33.25
79026;DHT22;68425;44.716;37.756;2023-04-01T06:26:37;25.72;33.34
79026;DHT22;68425;44.716;37.756;2023-04-01T06:29:35;25.69;33.40
79026;DHT22;68425;44.716;37.756;2023-04-01T06:33:19;25.69;33.37
79026;DHT22;68425;44.716;37.756;2023-04-01T06:38:38;25.68;33.32
79026;DHT22;68425;44.716;37.756;2023-04-01T06:41:39;25.72;33.19
79026;DHT22;68425;44.716;37.756;2023-04-01T06:44:53;25.74;33.12
79026;DHT22;68425;44.716;37.756;2023-04-01T06:48:11;25.77;33.15
79026;DHT22;68425;44.716;37.756;2023-04-01T06:51:51;25.74;33.22
79026;DHT22;68425;44.716;37.756;2023-04-01T06:57:02;25.72;33.31
79026;DHT22;68425;44.716;37.756;2023-04-01T06:58:19;25.68;33.20
79026;DHT22;68425;44.716;37.756;2023-04-01T06:59:32;25.66;33.24
79026;DHT22;68425;44.716;37.756;2023-04-01T07:00:37;25.65;33.44
79026;DHT22;68425;44.716;37.756;2023-04-01T07:02:29;25.64;33.40
79026;DHT22;68425;44.716;37.756;2023-04-01T07:03:21;25.66;33.28
79026;DHT22;68425;44.716;37.756;2023-04-01T07:04:33;25.65;33.22
79026;DHT22;68425;44.716;37.756;2023-04-01T07:05:36;25.65;33.36
79026;DHT22;68425;44.716;37.756;2023-04-01T07:07:18;25.65;33.29
79026;DHT22;68425;44.716;37.756;2023-04-01T07:08:31;25.71;33.25
79026;DHT22;68425;44.716;37.756;2023-04-01T07:09:38;25.69;33.12
79026;DHT22;68425;44.716;37.756;2023-04-01T07:11:08;25.65;33.54
79026;DHT22;68425;44.716;37.756;2023-04-01T07:12:48;25.64;33.89
79026;DHT22;68425;44.716;37.756;2023-04-01T07:15:28;25.59;34.36
79026;DHT22;68425;44.716;37.756;2023-04-01T07:16:36;25.59;34.38
79026;DHT22;68425;44.716;37.756;2023-04-01T07:17:42;25.58;34.47
79026;DHT22;68425;44.716;37.756;2023-04-01T07:19:05;25.57;34.52
79026;DHT22;68425;44.716;37.756;2023-04-01T07:20:26;25.59;34.47
79026;DHT22;68425;44.716;37.756;2023-04-01T07:21:36;25.59;34.40
79026;DHT22;68425;44.716;37.756;2023-04-01T07:22:51;25.60;34.62
79026;DHT22;68425;44.716;37.756;2023-04-01T07:24:09;25.60;34.67
79026;DHT22;68425;44.716;37.756;2023-04-01T07:25:26;25.59;34.63
79026;DHT22;68425;44.716;37.756;2023-04-01T07:26:53;25.62;34.65
79026;DHT22;68425;44.716;37.756;2023-04-01T07:28:11;25.62;34.63
79026;DHT22;68425;44.716;37.756;2023-04-01T07:29:14;25.63;34.51
79026;DHT22;68425;44.716;37.756;2023-04-01T07:30:29;25.63;34.18
79026;DHT22;68425;44.716;37.756;2023-04-01T07:33:04;25.65;34.62
79026;DHT22;68425;44.716;37.756;2023-04-01T07:34:25;25.66;34.52